createdAt,value
2023-01-17T00:00:43.926Z,88.18
2023-01-17T00:02:06.890Z,88.26
2023-01-17T00:03:29.022Z,87.78
2023-01-17T00:05:09.102Z,87.57
2023-01-17T00:06:49.277Z,88.34
2023-01-17T00:08:32.481Z,88.67
2023-01-17T00:09:54.321Z,88.21
2023-01-17T00:11:15.917Z,88.22
2023-01-17T00:12:37.746Z,88.56
2023-01-17T00:14:00.876Z,89.34
2023-01-17T00:15:23.905Z,89.21
2023-01-17T00:16:45.822Z,88.99
2023-01-17T00:18:07.649Z,88.99
2023-01-17T00:19:47.828Z,88.70
2023-01-17T00:21:27.823Z,88.39
2023-01-17T00:23:08.367Z,89.29
2023-01-17T00:24:48.481Z,88.09
2023-01-17T00:26:16.818Z,88.49
2023-01-17T00:27:38.470Z,88.38
2023-01-17T00:29:00.244Z,88.29
2023-01-17T00:30:22.309Z,88.56
2023-01-17T00:31:43.966Z,87.90
2023-01-17T00:33:06.505Z,88.02
2023-01-17T00:34:28.376Z,89.17
2023-01-17T00:35:51.979Z,88.16
2023-01-17T00:37:13.581Z,88.13
2023-01-17T00:38:37.787Z,88.18
2023-01-17T00:39:59.307Z,87.88
2023-01-17T00:41:21.261Z,87.91
2023-01-17T00:42:48.149Z,88.08
2023-01-17T00:44:28.724Z,87.77
2023-01-17T00:46:09.812Z,87.99
2023-01-17T00:47:50.016Z,88.15
2023-01-17T00:49:30.035Z,87.78
2023-01-17T00:51:10.146Z,88.46
2023-01-17T00:52:50.495Z,88.88
2023-01-17T00:54:31.305Z,88.32
2023-01-17T00:56:11.405Z,89.20
2023-01-17T00:57:51.795Z,89.33
2023-01-17T00:59:32.110Z,89.88
2023-01-17T01:01:13.690Z,89.68
2023-01-17T01:02:54.597Z,89.81
2023-01-17T01:04:35.090Z,89.96
2023-01-17T01:06:15.138Z,89.93
2023-01-17T01:07:55.215Z,89.99
2023-01-17T01:09:35.338Z,90.11
2023-01-17T01:11:15.485Z,90.23
2023-01-17T01:12:55.754Z,90.19
2023-01-17T01:14:36.213Z,90.15
2023-01-17T01:16:21.121Z,89.91
2023-01-17T01:18:01.490Z,90.66
2023-01-17T01:19:41.527Z,90.54
2023-01-17T01:21:22.126Z,90.58
2023-01-17T01:23:02.046Z,91.09
2023-01-17T01:24:42.337Z,90.51
2023-01-17T01:26:23.468Z,90.47
2023-01-17T01:28:03.468Z,90.14
2023-01-17T01:29:43.348Z,90.07
2023-01-17T01:31:25.326Z,89.93
2023-01-17T01:33:05.454Z,90.59
2023-01-17T01:34:27.571Z,90.05
2023-01-17T01:35:54.484Z,89.76
2023-01-17T01:37:16.263Z,90.71
2023-01-17T01:38:38.168Z,90.39
2023-01-17T01:40:00.121Z,90.63
2023-01-17T01:41:21.876Z,90.19
2023-01-17T01:42:56.287Z,91.24
2023-01-17T01:44:44.183Z,91.59
2023-01-17T01:46:06.952Z,92.03
2023-01-17T01:47:37.033Z,91.46
2023-01-17T01:49:14.654Z,91.15
2023-01-17T01:50:37.665Z,91.18
2023-01-17T01:52:02.345Z,90.49
2023-01-17T01:53:24.917Z,90.82
2023-01-17T01:54:54.074Z,90.69
2023-01-17T01:56:17.272Z,91.55
2023-01-17T01:57:42.498Z,90.62
2023-01-17T01:59:07.444Z,91.31
2023-01-17T02:00:36.337Z,90.65
2023-01-17T02:01:58.408Z,90.00
2023-01-17T02:03:29.580Z,90.01
2023-01-17T02:04:52.060Z,90.26
2023-01-17T02:06:32.390Z,90.41
2023-01-17T02:08:07.725Z,90.69
2023-01-17T02:09:29.373Z,90.82
2023-01-17T02:10:52.210Z,91.60
2023-01-17T02:12:14.516Z,91.44
2023-01-17T02:13:36.660Z,90.87
2023-01-17T02:14:58.797Z,91.66
2023-01-17T02:16:45.434Z,90.93
2023-01-17T02:18:27.372Z,90.96
2023-01-17T02:20:05.901Z,91.78
2023-01-17T02:21:43.263Z,92.79
2023-01-17T02:23:35.537Z,91.80
2023-01-17T02:25:25.223Z,90.96
2023-01-17T02:27:20.815Z,91.50
2023-01-17T02:29:20.087Z,91.71
2023-01-17T02:30:51.396Z,90.76
2023-01-17T02:32:35.234Z,91.18
2023-01-17T02:33:56.900Z,90.51
2023-01-17T02:35:42.971Z,90.29
2023-01-17T02:37:21.584Z,90.84
2023-01-17T02:38:54.444Z,90.64
2023-01-17T02:40:23.512Z,91.19
2023-01-17T02:41:49.770Z,92.35
2023-01-17T02:43:16.880Z,93.15
2023-01-17T02:44:43.196Z,93.02
2023-01-17T02:46:05.462Z,93.34
2023-01-17T02:47:31.923Z,93.61
2023-01-17T02:48:56.387Z,93.55
2023-01-17T02:50:23.781Z,92.39
2023-01-17T02:52:14.573Z,92.04
2023-01-17T02:54:26.267Z,92.20
2023-01-17T02:56:08.104Z,92.40
2023-01-17T02:58:03.621Z,92.15
2023-01-17T02:59:48.767Z,92.99
2023-01-17T03:01:45.105Z,92.98
2023-01-17T03:03:44.805Z,93.27
2023-01-17T03:05:36.646Z,93.50
2023-01-17T03:07:04.526Z,93.57
2023-01-17T03:08:27.664Z,94.00
2023-01-17T03:09:53.607Z,93.93
2023-01-17T03:11:16.597Z,93.75
2023-01-17T03:12:39.963Z,92.44
2023-01-17T03:14:01.719Z,92.70
2023-01-17T03:15:23.444Z,92.68
2023-01-17T03:16:45.609Z,92.59
2023-01-17T03:18:13.979Z,93.25
2023-01-17T03:19:35.659Z,93.73
2023-01-17T03:20:57.404Z,94.59
2023-01-17T03:22:19.253Z,94.25
2023-01-17T03:23:41.141Z,94.46
2023-01-17T03:25:03.124Z,94.84
2023-01-17T03:26:24.669Z,94.61
2023-01-17T03:27:46.798Z,94.86
2023-01-17T03:29:08.445Z,95.14
2023-01-17T03:30:30.731Z,94.57
2023-01-17T03:31:52.477Z,94.57
2023-01-17T03:33:16.221Z,94.79
2023-01-17T03:34:37.985Z,95.23
2023-01-17T03:36:00.407Z,95.85
2023-01-17T03:37:22.488Z,95.23
2023-01-17T03:38:44.671Z,95.21
2023-01-17T03:40:07.136Z,94.51
2023-01-17T03:41:28.839Z,95.12
2023-01-17T03:42:50.913Z,94.47
2023-01-17T03:44:12.669Z,95.53
2023-01-17T03:45:34.886Z,94.61
2023-01-17T03:46:56.578Z,93.37
2023-01-17T03:48:18.906Z,93.30
2023-01-17T03:49:40.842Z,92.72
2023-01-17T03:51:02.525Z,93.58
2023-01-17T03:52:24.219Z,94.20
2023-01-17T03:53:47.044Z,93.87
2023-01-17T03:55:09.301Z,93.35
2023-01-17T03:56:30.913Z,93.16
2023-01-17T03:57:53.015Z,92.55
2023-01-17T03:59:14.650Z,92.73
2023-01-17T04:00:37.041Z,94.47
2023-01-17T04:01:58.931Z,93.92
2023-01-17T04:03:20.831Z,94.19
2023-01-17T04:04:42.904Z,93.76
2023-01-17T04:06:04.712Z,93.58
2023-01-17T04:07:26.566Z,92.98
2023-01-17T04:08:49.490Z,93.05
2023-01-17T04:10:11.409Z,92.74
2023-01-17T04:11:33.549Z,93.63
2023-01-17T04:12:55.662Z,93.55
2023-01-17T04:14:18.117Z,94.39
2023-01-17T04:15:40.371Z,94.83
2023-01-17T04:17:04.206Z,93.98
2023-01-17T04:18:25.872Z,93.96
2023-01-17T04:19:48.200Z,94.87
2023-01-17T04:21:09.879Z,94.45
2023-01-17T04:22:31.884Z,94.30
2023-01-17T04:23:53.709Z,93.96
2023-01-17T04:25:15.894Z,93.76
2023-01-17T04:26:37.526Z,94.15
2023-01-17T04:28:01.339Z,93.78
2023-01-17T04:29:23.249Z,94.62
2023-01-17T04:30:45.342Z,95.36
2023-01-17T04:32:07.639Z,94.42
2023-01-17T04:33:30.263Z,94.39
2023-01-17T04:34:52.091Z,94.14
2023-01-17T04:36:14.067Z,93.50
2023-01-17T04:37:36.792Z,92.98
2023-01-17T04:38:58.466Z,93.02
2023-01-17T04:40:20.514Z,92.87
2023-01-17T04:41:43.972Z,92.69
2023-01-17T04:43:05.580Z,92.99
2023-01-17T04:44:27.539Z,93.49
2023-01-17T04:45:54.131Z,93.82
2023-01-17T04:47:15.782Z,93.79
2023-01-17T04:48:37.802Z,93.82
2023-01-17T04:49:59.496Z,94.42
2023-01-17T04:51:21.401Z,93.40
2023-01-17T04:52:43.247Z,93.75
2023-01-17T04:54:05.225Z,94.03
2023-01-17T04:55:27.701Z,94.11
2023-01-17T04:56:49.491Z,94.79
2023-01-17T04:58:11.391Z,94.97
2023-01-17T04:59:33.183Z,94.74
2023-01-17T05:00:55.169Z,95.00
2023-01-17T05:02:17.278Z,94.93
2023-01-17T05:03:39.018Z,94.62
2023-01-17T05:05:00.866Z,94.56
2023-01-17T05:06:22.429Z,94.53
2023-01-17T05:07:44.519Z,95.37
2023-01-17T05:09:06.895Z,94.66
2023-01-17T05:10:28.717Z,94.21
2023-01-17T05:11:50.793Z,94.09
2023-01-17T05:13:12.628Z,93.85
2023-01-17T05:14:34.593Z,94.06
2023-01-17T05:15:58.390Z,94.56
2023-01-17T05:17:20.340Z,94.23
2023-01-17T05:18:42.001Z,95.26
2023-01-17T05:20:03.944Z,95.38
2023-01-17T05:21:25.614Z,95.64
2023-01-17T05:22:55.629Z,94.93
2023-01-17T05:24:18.070Z,94.36
2023-01-17T05:25:44.941Z,95.42
2023-01-17T05:27:06.964Z,95.17
2023-01-17T05:28:28.616Z,95.48
2023-01-17T05:29:50.523Z,95.11
2023-01-17T05:31:12.751Z,94.95
2023-01-17T05:32:34.848Z,94.58
2023-01-17T05:33:56.836Z,94.82
2023-01-17T05:35:20.682Z,94.28
2023-01-17T05:36:42.616Z,94.56
2023-01-17T05:38:04.764Z,93.92
2023-01-17T05:39:27.041Z,93.52
2023-01-17T05:40:49.245Z,95.48
2023-01-17T05:42:13.612Z,95.49
2023-01-17T05:43:35.165Z,95.21
2023-01-17T05:44:57.317Z,94.41
2023-01-17T05:46:19.198Z,94.74
2023-01-17T05:47:41.242Z,94.92
2023-01-17T05:49:03.159Z,94.00
2023-01-17T05:50:28.571Z,94.55
2023-01-17T05:51:50.374Z,94.51
2023-01-17T05:53:14.618Z,93.81
2023-01-17T05:54:36.304Z,94.54
2023-01-17T05:55:58.319Z,94.22
2023-01-17T05:57:20.284Z,95.50
2023-01-17T05:58:42.001Z,96.70
2023-01-17T06:00:04.919Z,96.21
2023-01-17T06:01:26.532Z,96.82
2023-01-17T06:02:48.998Z,96.36
2023-01-17T06:04:10.686Z,96.35
2023-01-17T06:05:32.648Z,96.10
2023-01-17T06:06:54.637Z,96.21
2023-01-17T06:08:16.434Z,96.65
2023-01-17T06:09:38.496Z,96.45
2023-01-17T06:11:00.291Z,96.09
2023-01-17T06:12:22.249Z,96.12
2023-01-17T06:13:44.333Z,96.69
2023-01-17T06:15:07.000Z,97.37
2023-01-17T06:16:29.669Z,96.80
2023-01-17T06:17:51.827Z,96.61
2023-01-17T06:19:13.622Z,96.06
2023-01-17T06:20:35.988Z,95.79
2023-01-17T06:21:57.951Z,96.73
2023-01-17T06:23:20.011Z,96.61
2023-01-17T06:24:41.566Z,96.76
2023-01-17T06:26:04.555Z,95.58
2023-01-17T06:27:26.279Z,95.92
2023-01-17T06:28:48.332Z,97.39
2023-01-17T06:30:10.829Z,97.20
2023-01-17T06:31:33.088Z,96.95
2023-01-17T06:32:55.850Z,96.18
2023-01-17T06:34:18.123Z,96.35
2023-01-17T06:35:44.263Z,96.38
2023-01-17T06:37:06.644Z,98.19
2023-01-17T06:38:29.916Z,98.52
2023-01-17T06:39:51.947Z,98.12
2023-01-17T06:41:13.942Z,98.68
2023-01-17T06:42:35.825Z,97.50
2023-01-17T06:43:57.649Z,96.50
2023-01-17T06:45:19.929Z,97.63
2023-01-17T06:46:41.702Z,98.37
2023-01-17T06:48:05.344Z,97.41
2023-01-17T06:49:27.317Z,98.69
2023-01-17T06:50:49.938Z,97.73
2023-01-17T06:52:12.143Z,97.23
2023-01-17T06:53:34.096Z,97.51
2023-01-17T06:54:55.921Z,98.10
2023-01-17T06:56:17.899Z,98.07
2023-01-17T06:57:39.867Z,99.15
2023-01-17T06:59:01.970Z,99.11
2023-01-17T07:00:23.820Z,99.03
2023-01-17T07:01:45.875Z,98.59
2023-01-17T07:03:17.424Z,98.31
2023-01-17T07:04:39.324Z,98.39
2023-01-17T07:06:05.232Z,99.05
2023-01-17T07:07:26.893Z,99.50
2023-01-17T07:08:48.976Z,99.00
2023-01-17T07:10:12.730Z,99.49
2023-01-17T07:11:34.276Z,99.73
2023-01-17T07:13:00.790Z,99.94
2023-01-17T07:14:22.485Z,100.00
2023-01-17T07:15:44.571Z,100.00
2023-01-17T07:17:06.368Z,100.00
2023-01-17T07:18:28.758Z,100.00
2023-01-17T07:19:50.645Z,99.96
2023-01-17T07:21:14.311Z,99.86
2023-01-17T07:22:37.833Z,98.46
2023-01-17T07:23:59.631Z,99.50
2023-01-17T07:25:21.704Z,99.84
2023-01-17T07:26:43.752Z,98.95
2023-01-17T07:28:05.860Z,98.90
2023-01-17T07:29:27.855Z,98.73
2023-01-17T07:30:50.392Z,98.08
2023-01-17T07:32:12.220Z,97.89
2023-01-17T07:33:34.268Z,98.64
2023-01-17T07:34:58.810Z,98.02
2023-01-17T07:36:20.327Z,97.50
2023-01-17T07:37:51.187Z,97.62
2023-01-17T07:39:13.173Z,97.96
2023-01-17T07:40:41.786Z,98.28
2023-01-17T07:42:04.127Z,98.96
2023-01-17T07:43:26.301Z,99.53
2023-01-17T07:44:48.624Z,99.75
2023-01-17T07:46:10.453Z,99.61
2023-01-17T07:47:34.031Z,99.27
2023-01-17T07:48:56.222Z,99.13
2023-01-17T07:50:18.188Z,98.87
2023-01-17T07:51:40.174Z,99.69
2023-01-17T07:53:01.799Z,99.07
2023-01-17T07:54:23.723Z,99.49
2023-01-17T07:55:45.571Z,99.97
2023-01-17T07:57:12.683Z,99.59
2023-01-17T07:58:35.327Z,100.00
2023-01-17T07:59:59.274Z,100.00
2023-01-17T08:01:21.021Z,100.00
2023-01-17T08:02:42.710Z,100.00
2023-01-17T08:04:04.585Z,100.00
2023-01-17T08:05:27.678Z,100.00
2023-01-17T08:06:51.743Z,100.00
2023-01-17T08:08:13.405Z,100.00
2023-01-17T08:09:35.188Z,100.00
2023-01-17T08:10:57.494Z,100.00
2023-01-17T08:12:19.376Z,100.00
2023-01-17T08:13:41.874Z,100.00
2023-01-17T08:15:03.634Z,100.00
2023-01-17T08:16:26.058Z,100.00
2023-01-17T08:17:49.408Z,100.00
2023-01-17T08:19:11.163Z,100.00
2023-01-17T08:20:32.799Z,100.00
2023-01-17T08:21:54.831Z,100.00
2023-01-17T08:23:17.041Z,100.00
2023-01-17T08:24:39.228Z,100.00
2023-01-17T08:26:02.064Z,100.00
2023-01-17T08:27:24.020Z,100.00
2023-01-17T08:28:45.736Z,100.00
2023-01-17T08:30:08.619Z,100.00
2023-01-17T08:31:35.315Z,100.00
2023-01-17T08:32:57.662Z,100.00
2023-01-17T08:34:19.380Z,100.00
2023-01-17T08:35:50.510Z,100.00
2023-01-17T08:37:12.184Z,100.00
2023-01-17T08:38:34.194Z,100.00
2023-01-17T08:39:56.267Z,100.00
2023-01-17T08:41:18.066Z,100.00
2023-01-17T08:42:41.013Z,100.00
2023-01-17T08:44:03.367Z,100.00
2023-01-17T08:45:25.613Z,100.00
2023-01-17T08:46:47.412Z,100.00
2023-01-17T08:48:09.279Z,100.00
2023-01-17T08:49:30.922Z,100.00
2023-01-17T08:50:52.983Z,100.00
2023-01-17T08:52:15.715Z,100.00
2023-01-17T08:53:37.667Z,100.00
2023-01-17T08:54:59.418Z,100.00
2023-01-17T08:56:21.879Z,100.00
2023-01-17T08:57:43.972Z,100.00
2023-01-17T08:59:05.787Z,100.00
2023-01-17T09:00:28.600Z,100.00
2023-01-17T09:01:52.482Z,100.00
2023-01-17T09:03:14.626Z,100.00
2023-01-17T09:04:36.438Z,100.00
2023-01-17T09:06:10.600Z,100.00
2023-01-17T09:07:32.433Z,100.00
2023-01-17T09:08:54.904Z,100.00
2023-01-17T09:10:16.944Z,100.00
2023-01-17T09:11:38.982Z,100.00
2023-01-17T09:13:01.039Z,100.00
2023-01-17T09:14:22.950Z,100.00
2023-01-17T09:15:44.450Z,100.00
2023-01-17T09:17:07.158Z,100.00
2023-01-17T09:18:30.080Z,100.00
2023-01-17T09:19:52.293Z,100.00
2023-01-17T09:21:16.535Z,100.00
2023-01-17T09:22:39.137Z,100.00
2023-01-17T09:24:01.156Z,100.00
2023-01-17T09:25:23.011Z,100.00
2023-01-17T09:26:44.953Z,100.00
2023-01-17T09:28:06.977Z,100.00
2023-01-17T09:29:28.931Z,100.00
2023-01-17T09:30:51.063Z,100.00
2023-01-17T09:32:12.656Z,100.00
2023-01-17T09:33:35.077Z,100.00
2023-01-17T09:35:00.792Z,100.00
2023-01-17T09:36:23.947Z,100.00
2023-01-17T09:37:48.691Z,100.00
2023-01-17T09:39:11.820Z,100.00
2023-01-17T09:40:34.201Z,100.00
2023-01-17T09:42:11.745Z,100.00
2023-01-17T09:43:40.840Z,100.00
2023-01-17T09:45:03.063Z,100.00
2023-01-17T09:46:30.068Z,99.88
2023-01-17T09:47:54.750Z,100.00
2023-01-17T09:49:28.499Z,100.00
2023-01-17T09:51:21.619Z,99.96
2023-01-17T09:52:43.353Z,98.92
2023-01-17T09:54:05.506Z,98.67
2023-01-17T09:55:35.091Z,98.08
2023-01-17T09:57:23.404Z,98.03
2023-01-17T09:58:59.483Z,97.93
2023-01-17T10:00:30.639Z,97.58
2023-01-17T10:02:17.087Z,97.61
2023-01-17T10:04:05.739Z,96.07
2023-01-17T10:05:37.512Z,95.55
2023-01-17T10:07:25.147Z,95.00
2023-01-17T10:08:58.564Z,95.17
2023-01-17T10:10:39.172Z,95.33
2023-01-17T10:12:28.752Z,95.31
2023-01-17T10:14:11.434Z,95.14
2023-01-17T10:16:02.204Z,95.32
2023-01-17T10:17:43.726Z,95.37
2023-01-17T10:19:38.272Z,95.11
2023-01-17T10:21:11.059Z,94.63
2023-01-17T10:22:44.542Z,93.69
2023-01-17T10:24:16.654Z,92.06
2023-01-17T10:26:03.075Z,91.50
2023-01-17T10:27:48.242Z,90.96
2023-01-17T10:29:20.186Z,89.58
2023-01-17T10:31:11.239Z,89.43
2023-01-17T10:32:34.838Z,90.27
2023-01-17T10:34:21.816Z,89.87
2023-01-17T10:35:57.077Z,90.08
2023-01-17T10:37:27.640Z,89.71
2023-01-17T10:38:56.962Z,89.41
2023-01-17T10:40:19.168Z,89.35
2023-01-17T10:41:45.212Z,90.16
2023-01-17T10:43:49.220Z,89.72
2023-01-17T10:45:28.976Z,89.97
2023-01-17T10:47:06.192Z,90.71
2023-01-17T10:48:43.571Z,91.11
2023-01-17T10:50:05.703Z,91.75
2023-01-17T10:51:50.822Z,92.47
2023-01-17T10:53:40.895Z,95.12
2023-01-17T10:55:18.809Z,94.17
2023-01-17T10:56:42.031Z,94.36
2023-01-17T10:58:04.074Z,94.68
2023-01-17T10:59:34.347Z,93.97
2023-01-17T11:01:00.802Z,93.56
2023-01-17T11:02:33.196Z,89.01
2023-01-17T11:03:55.374Z,88.00
2023-01-17T11:05:29.646Z,89.13
2023-01-17T11:07:11.986Z,90.80
2023-01-17T11:08:51.279Z,90.37
2023-01-17T11:10:54.283Z,91.54
2023-01-17T11:12:45.851Z,91.22
2023-01-17T11:14:22.125Z,91.96
2023-01-17T11:15:50.004Z,92.94
2023-01-17T11:17:12.509Z,93.96
2023-01-17T11:18:39.926Z,94.15
2023-01-17T11:20:12.687Z,94.53
2023-01-17T11:21:36.673Z,93.97
2023-01-17T11:23:29.645Z,95.06
2023-01-17T11:24:56.199Z,93.83
2023-01-17T11:26:30.335Z,93.48
2023-01-17T11:28:02.539Z,93.10
2023-01-17T11:29:40.888Z,93.01
2023-01-17T11:31:10.067Z,94.04
2023-01-17T11:32:34.612Z,94.62
2023-01-17T11:34:17.774Z,95.13
2023-01-17T11:35:45.328Z,95.23
2023-01-17T11:37:17.224Z,94.73
2023-01-17T11:38:39.168Z,94.88
2023-01-17T11:40:21.105Z,95.21
2023-01-17T11:41:43.789Z,94.09
2023-01-17T11:43:18.760Z,94.77
2023-01-17T11:44:40.823Z,95.11
2023-01-17T11:46:15.809Z,95.24
2023-01-17T11:47:37.741Z,94.93
2023-01-17T11:49:01.838Z,95.23
2023-01-17T11:50:27.658Z,95.93
2023-01-17T11:51:49.592Z,94.96
2023-01-17T11:53:28.094Z,95.24
2023-01-17T11:54:51.524Z,96.06
2023-01-17T11:56:20.468Z,95.51
2023-01-17T11:57:42.948Z,95.07
2023-01-17T11:59:25.778Z,94.31
2023-01-17T12:01:09.715Z,95.26
2023-01-17T12:02:37.824Z,95.39
2023-01-17T12:04:22.879Z,95.18
2023-01-17T12:05:59.780Z,94.76
2023-01-17T12:07:30.876Z,95.30
2023-01-17T12:08:55.577Z,94.04
2023-01-17T12:10:26.240Z,95.36
2023-01-17T12:12:09.474Z,94.30
2023-01-17T12:14:02.297Z,94.18
2023-01-17T12:16:21.507Z,94.34
2023-01-17T12:17:53.853Z,94.15
2023-01-17T12:19:34.438Z,91.77
2023-01-17T12:21:21.307Z,90.93
2023-01-17T12:22:48.640Z,90.20
2023-01-17T12:24:25.169Z,90.04
2023-01-17T12:26:02.766Z,88.67
2023-01-17T12:27:58.964Z,90.04
2023-01-17T12:29:52.856Z,91.56
2023-01-17T12:31:46.473Z,91.92
2023-01-17T12:33:08.312Z,91.76
2023-01-17T12:34:53.546Z,90.35
2023-01-17T12:36:31.117Z,89.70
2023-01-17T12:38:05.307Z,89.98
2023-01-17T12:39:39.987Z,88.48
2023-01-17T12:41:20.757Z,87.40
2023-01-17T12:42:49.851Z,87.43
2023-01-17T12:44:16.194Z,86.94
2023-01-17T12:45:45.169Z,87.92
2023-01-17T12:47:07.500Z,88.67
2023-01-17T12:48:35.918Z,89.15
2023-01-17T12:50:06.833Z,89.38
2023-01-17T12:51:37.565Z,86.32
2023-01-17T12:53:24.358Z,84.17
2023-01-17T12:54:51.908Z,86.12
2023-01-17T12:56:24.314Z,85.93
2023-01-17T12:58:00.243Z,84.45
2023-01-17T12:59:40.438Z,85.32
2023-01-17T13:01:29.677Z,84.00
2023-01-17T13:03:07.300Z,82.10
2023-01-17T13:04:58.468Z,82.64
2023-01-17T13:06:36.071Z,82.33
2023-01-17T13:08:34.509Z,82.99
2023-01-17T13:10:22.596Z,83.16
2023-01-17T13:12:06.931Z,82.35
2023-01-17T13:13:30.614Z,80.13
2023-01-17T13:14:52.875Z,81.03
2023-01-17T13:16:27.647Z,80.47
2023-01-17T13:17:55.777Z,81.66
2023-01-17T13:19:52.898Z,83.51
2023-01-17T13:21:35.382Z,84.28
2023-01-17T13:23:06.751Z,83.49
2023-01-17T13:24:38.410Z,83.52
2023-01-17T13:26:02.107Z,84.39
2023-01-17T13:27:29.917Z,84.95
2023-01-17T13:29:35.630Z,85.62
2023-01-17T13:31:19.204Z,86.87
2023-01-17T13:32:53.047Z,87.95
2023-01-17T13:34:29.504Z,88.12
2023-01-17T13:36:09.900Z,88.06
2023-01-17T13:37:45.734Z,88.72
2023-01-17T13:39:19.868Z,89.31
2023-01-17T13:40:49.975Z,88.92
2023-01-17T13:42:17.893Z,88.46
2023-01-17T13:44:02.335Z,88.94
2023-01-17T13:45:30.870Z,89.57
2023-01-17T13:47:27.628Z,89.69
2023-01-17T13:49:33.297Z,88.14
2023-01-17T13:50:57.734Z,89.08
2023-01-17T13:52:25.152Z,89.75
2023-01-17T13:53:47.316Z,86.47
2023-01-17T13:55:28.246Z,88.19
2023-01-17T13:56:50.081Z,88.24
2023-01-17T13:58:50.137Z,88.69
2023-01-17T14:00:21.521Z,85.62
2023-01-17T14:01:46.375Z,84.83
2023-01-17T14:03:12.018Z,83.02
2023-01-17T14:05:08.056Z,83.07
2023-01-17T14:06:49.098Z,81.79
2023-01-17T14:08:17.415Z,81.29
2023-01-17T14:09:44.247Z,81.71
2023-01-17T14:11:09.998Z,82.31
2023-01-17T14:12:33.528Z,82.72
2023-01-17T14:13:56.093Z,82.10
2023-01-17T14:15:24.401Z,80.76
2023-01-17T14:16:46.569Z,80.65
2023-01-17T14:18:39.015Z,80.94
2023-01-17T14:20:10.045Z,81.54
2023-01-17T14:21:32.434Z,81.85
2023-01-17T14:23:01.981Z,82.32
2023-01-17T14:24:23.815Z,82.09
2023-01-17T14:25:45.823Z,82.43
2023-01-17T14:27:23.498Z,82.34
2023-01-17T14:28:45.523Z,81.50
2023-01-17T14:30:17.537Z,81.27
2023-01-17T14:31:40.386Z,80.97
2023-01-17T14:33:02.304Z,80.32
2023-01-17T14:34:25.191Z,81.77
2023-01-17T14:35:53.221Z,82.19
2023-01-17T14:37:29.512Z,83.10
2023-01-17T14:38:51.474Z,84.39
2023-01-17T14:40:16.904Z,83.82
2023-01-17T14:41:38.798Z,84.66
2023-01-17T14:43:02.999Z,84.10
2023-01-17T14:44:24.883Z,84.10
2023-01-17T14:45:47.511Z,84.01
2023-01-17T14:47:14.267Z,84.21
2023-01-17T14:48:41.077Z,83.93
2023-01-17T14:50:21.962Z,84.88
2023-01-17T14:51:43.881Z,84.53
2023-01-17T14:53:15.425Z,84.47
2023-01-17T14:54:37.105Z,84.63
2023-01-17T14:56:11.733Z,84.67
2023-01-17T14:57:33.347Z,83.91
2023-01-17T14:59:06.603Z,84.62
2023-01-17T15:00:35.053Z,84.99
2023-01-17T15:02:08.023Z,85.78
2023-01-17T15:03:43.264Z,84.40
2023-01-17T15:05:05.477Z,85.33
2023-01-17T15:06:38.029Z,85.78
2023-01-17T15:08:00.247Z,86.22
2023-01-17T15:09:37.147Z,86.32
2023-01-17T15:11:07.584Z,87.70
2023-01-17T15:12:29.915Z,87.99
2023-01-17T15:13:57.393Z,88.20
2023-01-17T15:15:35.311Z,88.38
2023-01-17T15:16:57.048Z,88.92
2023-01-17T15:18:21.472Z,89.18
2023-01-17T15:19:53.977Z,88.95
2023-01-17T15:21:19.648Z,89.15
2023-01-17T15:22:41.540Z,90.19
2023-01-17T15:24:08.231Z,89.66
2023-01-17T15:25:30.748Z,89.83
2023-01-17T15:26:52.861Z,90.04
2023-01-17T15:28:15.275Z,90.10
2023-01-17T15:29:37.314Z,90.34
2023-01-17T15:31:14.488Z,90.59
2023-01-17T15:32:38.041Z,90.79
2023-01-17T15:34:05.497Z,91.63
2023-01-17T15:35:28.410Z,91.58
2023-01-17T15:36:51.107Z,91.67
2023-01-17T15:38:15.727Z,91.97
2023-01-17T15:39:40.568Z,91.31
2023-01-17T15:41:12.303Z,91.34
2023-01-17T15:42:37.431Z,91.81
2023-01-17T15:43:59.836Z,91.83
2023-01-17T15:45:26.791Z,91.86
2023-01-17T15:46:49.075Z,92.11
2023-01-17T15:48:37.499Z,91.67
2023-01-17T15:50:00.418Z,91.91
2023-01-17T15:51:35.636Z,92.42
2023-01-17T15:53:06.384Z,92.42
2023-01-17T15:54:44.854Z,93.29
2023-01-17T15:56:33.567Z,93.06
2023-01-17T15:57:55.803Z,93.35
2023-01-17T15:59:40.731Z,93.30
2023-01-17T16:01:02.650Z,93.09
2023-01-17T16:02:30.236Z,93.68
2023-01-17T16:03:55.857Z,93.18
2023-01-17T16:05:31.076Z,93.54
2023-01-17T16:06:52.866Z,94.15
2023-01-17T16:08:22.938Z,93.49
2023-01-17T16:09:45.415Z,93.86
2023-01-17T16:11:10.549Z,93.39
2023-01-17T16:12:32.629Z,93.29
2023-01-17T16:13:54.589Z,93.10
2023-01-17T16:15:18.383Z,93.15
2023-01-17T16:16:40.388Z,92.33
2023-01-17T16:18:14.758Z,92.98
2023-01-17T16:19:36.896Z,92.47
2023-01-17T16:21:13.147Z,92.86
2023-01-17T16:22:35.031Z,92.36
2023-01-17T16:23:58.291Z,92.80
2023-01-17T16:25:22.971Z,93.23
2023-01-17T16:26:44.571Z,93.11
2023-01-17T16:28:06.651Z,93.29
2023-01-17T16:29:28.514Z,93.02
2023-01-17T16:30:53.991Z,92.90
2023-01-17T16:32:15.703Z,93.54
2023-01-17T16:33:39.276Z,93.12
2023-01-17T16:35:01.163Z,93.32
2023-01-17T16:36:23.105Z,93.01
2023-01-17T16:37:48.015Z,93.07
2023-01-17T16:39:14.376Z,93.24
2023-01-17T16:40:43.939Z,93.36
2023-01-17T16:42:05.883Z,93.06
2023-01-17T16:43:27.636Z,93.18
2023-01-17T16:44:49.571Z,93.13
2023-01-17T16:46:15.324Z,93.10
2023-01-17T16:47:37.107Z,93.06
2023-01-17T16:49:02.006Z,93.48
2023-01-17T16:50:25.129Z,92.76
2023-01-17T16:51:47.833Z,93.35
2023-01-17T16:53:09.990Z,93.27
2023-01-17T16:54:31.621Z,92.47
2023-01-17T16:55:57.159Z,92.98
2023-01-17T16:57:19.957Z,92.59
2023-01-17T16:58:41.942Z,93.31
2023-01-17T17:00:04.395Z,93.21
2023-01-17T17:01:26.109Z,93.19
2023-01-17T17:02:52.446Z,93.40
2023-01-17T17:04:14.316Z,92.70
2023-01-17T17:05:37.455Z,92.58
2023-01-17T17:06:59.529Z,92.70
2023-01-17T17:08:21.526Z,92.63
2023-01-17T17:09:43.451Z,92.56
2023-01-17T17:11:20.663Z,92.50
2023-01-17T17:12:43.388Z,92.48
2023-01-17T17:14:04.931Z,92.98
2023-01-17T17:15:26.956Z,93.52
2023-01-17T17:16:51.792Z,93.06
2023-01-17T17:18:16.535Z,92.94
2023-01-17T17:19:38.131Z,93.20
2023-01-17T17:21:02.621Z,93.24
2023-01-17T17:22:24.307Z,93.18
2023-01-17T17:23:46.519Z,93.79
2023-01-17T17:25:08.709Z,93.86
2023-01-17T17:26:35.417Z,93.91
2023-01-17T17:27:57.398Z,93.59
2023-01-17T17:29:20.027Z,94.31
2023-01-17T17:30:41.963Z,93.53
2023-01-17T17:32:04.195Z,93.92
2023-01-17T17:33:25.737Z,93.60
2023-01-17T17:34:48.174Z,93.74
2023-01-17T17:36:10.382Z,93.26
2023-01-17T17:37:32.246Z,93.72
2023-01-17T17:38:58.016Z,93.84
2023-01-17T17:40:19.848Z,93.90
2023-01-17T17:41:44.570Z,93.73
2023-01-17T17:43:07.702Z,93.54
2023-01-17T17:44:29.535Z,93.59
2023-01-17T17:45:51.462Z,93.59
2023-01-17T17:47:13.317Z,93.44
2023-01-17T17:48:35.491Z,93.69
2023-01-17T17:49:57.502Z,93.77
2023-01-17T17:51:29.460Z,94.60
2023-01-17T17:52:51.152Z,94.76
2023-01-17T17:54:14.408Z,94.46
2023-01-17T17:55:36.469Z,94.51
2023-01-17T17:56:58.279Z,94.64
2023-01-17T17:58:21.779Z,94.56
2023-01-17T17:59:43.622Z,94.61
2023-01-17T18:01:06.816Z,94.69
2023-01-17T18:02:28.494Z,94.64
2023-01-17T18:03:55.974Z,94.81
2023-01-17T18:05:17.755Z,95.40
2023-01-17T18:06:41.180Z,95.82
2023-01-17T18:08:03.055Z,96.54
2023-01-17T18:09:25.002Z,96.89
2023-01-17T18:10:47.017Z,97.59
2023-01-17T18:12:08.869Z,97.02
2023-01-17T18:13:32.406Z,96.01
2023-01-17T18:14:54.196Z,95.97
2023-01-17T18:16:21.633Z,95.35
2023-01-17T18:17:43.189Z,95.73
2023-01-17T18:19:06.388Z,95.80
2023-01-17T18:20:28.147Z,95.67
2023-01-17T18:21:51.389Z,95.80
2023-01-17T18:23:13.057Z,95.38
2023-01-17T18:24:35.233Z,96.34
2023-01-17T18:25:56.936Z,96.88
2023-01-17T18:27:18.921Z,97.16
2023-01-17T18:28:40.806Z,96.92
2023-01-17T18:30:02.832Z,97.43
2023-01-17T18:31:27.193Z,97.39
2023-01-17T18:32:49.976Z,96.44
2023-01-17T18:34:14.905Z,95.99
2023-01-17T18:35:36.860Z,96.03
2023-01-17T18:36:59.059Z,95.57
2023-01-17T18:38:21.052Z,95.74
2023-01-17T18:39:43.846Z,95.96
2023-01-17T18:41:17.381Z,95.77
2023-01-17T18:42:39.182Z,96.13
2023-01-17T18:44:05.886Z,96.05
2023-01-17T18:45:27.800Z,96.11
2023-01-17T18:46:50.664Z,96.43
2023-01-17T18:48:13.248Z,96.21